Airport ID:KTSP
Update Time (UTC):24 JAN 19 08:05
Wind Speed (Knots):CALM
Wind Direction (Magnetic):
Temperature (°C):-1
Dew Point (°C):-5
Humidity (%):74
Altimeter (inHg):30.29
Density Altitude (Feet):
Visibility (Miles):10
Clouds (Hundreds of feet):CLR
Present Weather:NO PRECIPITATION
METAR:METAR KTSP 240805Z AUTO 00000KT 10SM CLR M01/M05 A3029 RMK AO2

The data displayed is for advisory purposes only and is not to be used for flight planning or operations.

This page is not automatically refreshed. Reload the page to see current data.